sensor_id;sensor_type;location;lat;lon;timestamp;pressure;altitude;pressure_sealevel;temperature;humidity
19594;BME280;9944;48.240;16.478;2022-08-02T00:02:19;99735.88;;;22.34;72.69
19594;BME280;9944;48.240;16.478;2022-08-02T00:06:22;99748.31;;;22.35;72.54
19594;BME280;9944;48.240;16.478;2022-08-02T00:10:26;99757.16;;;22.37;72.84
19594;BME280;9944;48.240;16.478;2022-08-02T00:14:31;99766.22;;;22.35;73.01
19594;BME280;9944;48.240;16.478;2022-08-02T00:18:36;99758.44;;;22.29;72.93
19594;BME280;9944;48.240;16.478;2022-08-02T00:22:41;99772.28;;;22.18;72.80
19594;BME280;9944;48.240;16.478;2022-08-02T00:26:45;99765.41;;;22.12;72.48
19594;BME280;9944;48.240;16.478;2022-08-02T00:30:48;99776.19;;;22.11;72.55
19594;BME280;9944;48.240;16.478;2022-08-02T00:34:53;99775.31;;;22.10;72.12
19594;BME280;9944;48.240;16.478;2022-08-02T00:38:56;99770.81;;;22.11;72.25
19594;BME280;9944;48.240;16.478;2022-08-02T00:43:00;99781.59;;;22.09;72.37
19594;BME280;9944;48.240;16.478;2022-08-02T00:47:05;99784.28;;;22.09;72.00
19594;BME280;9944;48.240;16.478;2022-08-02T00:51:10;99778.31;;;22.03;71.51
19594;BME280;9944;48.240;16.478;2022-08-02T00:55:13;99793.53;;;22.02;71.29
19594;BME280;9944;48.240;16.478;2022-08-02T00:59:24;99794.78;;;21.93;71.43
19594;BME280;9944;48.240;16.478;2022-08-02T01:03:27;99800.16;;;21.93;71.66
19594;BME280;9944;48.240;16.478;2022-08-02T01:07:31;99809.22;;;21.91;71.66
19594;BME280;9944;48.240;16.478;2022-08-02T01:11:35;99810.38;;;21.84;71.55
19594;BME280;9944;48.240;16.478;2022-08-02T01:15:43;99818.56;;;21.80;71.75
19594;BME280;9944;48.240;16.478;2022-08-02T01:19:51;99816.00;;;21.77;71.21
19594;BME280;9944;48.240;16.478;2022-08-02T01:24:07;99830.31;;;21.76;71.27
19594;BME280;9944;48.240;16.478;2022-08-02T01:28:28;99830.31;;;21.76;71.38
19594;BME280;9944;48.240;16.478;2022-08-02T01:32:36;99830.53;;;21.72;70.73
19594;BME280;9944;48.240;16.478;2022-08-02T01:36:43;99835.94;;;21.70;71.04
19594;BME280;9944;48.240;16.478;2022-08-02T01:40:49;99831.63;;;21.66;70.73
19594;BME280;9944;48.240;16.478;2022-08-02T01:44:56;99827.22;;;21.65;70.97
19594;BME280;9944;48.240;16.478;2022-08-02T01:49:03;99843.16;;;21.68;70.79
19594;BME280;9944;48.240;16.478;2022-08-02T01:53:11;99837.78;;;21.68;70.55
19594;BME280;9944;48.240;16.478;2022-08-02T01:57:17;99836.06;;;21.67;70.54
19594;BME280;9944;48.240;16.478;2022-08-02T02:01:23;99834.19;;;21.69;70.71
19594;BME280;9944;48.240;16.478;2022-08-02T02:05:28;99829.84;;;21.67;70.42
19594;BME280;9944;48.240;16.478;2022-08-02T02:09:37;99830.78;;;21.66;70.57
19594;BME280;9944;48.240;16.478;2022-08-02T02:13:51;99816.50;;;21.65;70.05
19594;BME280;9944;48.240;16.478;2022-08-02T02:17:57;99816.63;;;21.62;70.17
19594;BME280;9944;48.240;16.478;2022-08-02T02:22:14;99814.06;;;21.59;69.94
19594;BME280;9944;48.240;16.478;2022-08-02T02:26:18;99816.06;;;21.54;69.55
19594;BME280;9944;48.240;16.478;2022-08-02T02:30:33;99824.09;;;21.54;69.75
19594;BME280;9944;48.240;16.478;2022-08-02T02:34:42;99832.19;;;21.52;69.31
19594;BME280;9944;48.240;16.478;2022-08-02T02:38:47;99831.44;;;21.49;69.76
19594;BME280;9944;48.240;16.478;2022-08-02T02:42:51;99828.81;;;21.47;70.41
19594;BME280;9944;48.240;16.478;2022-08-02T02:46:56;99830.63;;;21.47;70.59
19594;BME280;9944;48.240;16.478;2022-08-02T02:51:03;99832.47;;;21.44;70.43
19594;BME280;9944;48.240;16.478;2022-08-02T02:55:09;99832.53;;;21.43;70.41
19594;BME280;9944;48.240;16.478;2022-08-02T02:59:16;99836.13;;;21.42;70.36
19594;BME280;9944;48.240;16.478;2022-08-02T03:03:20;99830.88;;;21.40;70.65
19594;BME280;9944;48.240;16.478;2022-08-02T03:07:27;99829.91;;;21.41;70.78
19594;BME280;9944;48.240;16.478;2022-08-02T03:11:31;99841.44;;;21.43;70.59
19594;BME280;9944;48.240;16.478;2022-08-02T03:15:35;99837.03;;;21.42;70.55
19594;BME280;9944;48.240;16.478;2022-08-02T03:19:39;99831.78;;;21.39;70.59
19594;BME280;9944;48.240;16.478;2022-08-02T03:23:43;99837.16;;;21.39;70.68
19594;BME280;9944;48.240;16.478;2022-08-02T03:27:47;99831.91;;;21.36;70.77
19594;BME280;9944;48.240;16.478;2022-08-02T03:31:50;99827.66;;;21.31;70.90
19594;BME280;9944;48.240;16.478;2022-08-02T03:35:56;99832.28;;;21.27;70.71
19594;BME280;9944;48.240;16.478;2022-08-02T03:40:05;99838.53;;;21.26;70.83
19594;BME280;9944;48.240;16.478;2022-08-02T03:44:10;99839.50;;;21.25;71.10
19594;BME280;9944;48.240;16.478;2022-08-02T03:48:15;99851.94;;;21.26;70.74
19594;BME280;9944;48.240;16.478;2022-08-02T03:52:35;99869.75;;;21.27;70.95
19594;BME280;9944;48.240;16.478;2022-08-02T03:56:40;99870.63;;;21.28;70.87
19594;BME280;9944;48.240;16.478;2022-08-02T04:00:44;99878.91;;;21.21;70.76
19594;BME280;9944;48.240;16.478;2022-08-02T04:04:47;99877.25;;;21.17;70.97
19594;BME280;9944;48.240;16.478;2022-08-02T04:08:50;99887.25;;;21.12;71.43
19594;BME280;9944;48.240;16.478;2022-08-02T04:12:56;99892.59;;;21.12;71.50
19594;BME280;9944;48.240;16.478;2022-08-02T04:17:02;99896.09;;;21.14;71.76
19594;BME280;9944;48.240;16.478;2022-08-02T04:21:08;99903.19;;;21.15;71.64
19594;BME280;9944;48.240;16.478;2022-08-02T04:25:17;99912.03;;;21.17;71.88
19594;BME280;9944;48.240;16.478;2022-08-02T04:29:37;99912.91;;;21.18;71.69
19594;BME280;9944;48.240;16.478;2022-08-02T04:33:47;99923.50;;;21.21;71.72
19594;BME280;9944;48.240;16.478;2022-08-02T04:37:51;99925.25;;;21.22;71.69
19594;BME280;9944;48.240;16.478;2022-08-02T04:42:19;99922.63;;;21.20;71.54
19594;BME280;9944;48.240;16.478;2022-08-02T04:46:24;99913.75;;;21.20;71.57
19594;BME280;9944;48.240;16.478;2022-08-02T04:50:28;99910.13;;;21.21;71.70
19594;BME280;9944;48.240;16.478;2022-08-02T04:54:31;99907.34;;;21.24;71.77
19594;BME280;9944;48.240;16.478;2022-08-02T04:58:34;99917.94;;;21.27;71.41
19594;BME280;9944;48.240;16.478;2022-08-02T05:02:43;99927.59;;;21.31;71.45
19594;BME280;9944;48.240;16.478;2022-08-02T05:06:46;99940.84;;;21.34;71.54
19594;BME280;9944;48.240;16.478;2022-08-02T05:10:49;99941.63;;;21.38;71.44
19594;BME280;9944;48.240;16.478;2022-08-02T05:14:52;99946.84;;;21.41;71.46
19594;BME280;9944;48.240;16.478;2022-08-02T05:18:57;99944.91;;;21.46;71.64
19594;BME280;9944;48.240;16.478;2022-08-02T05:23:00;99949.16;;;21.52;71.77
19594;BME280;9944;48.240;16.478;2022-08-02T05:27:04;99944.31;;;21.61;71.88
19594;BME280;9944;48.240;16.478;2022-08-02T05:31:22;99951.94;;;21.72;71.70
19594;BME280;9944;48.240;16.478;2022-08-02T05:35:27;99960.28;;;21.87;71.77
19594;BME280;9944;48.240;16.478;2022-08-02T05:39:30;99966.81;;;22.03;71.88
19594;BME280;9944;48.240;16.478;2022-08-02T05:43:33;99968.84;;;22.18;71.72
19594;BME280;9944;48.240;16.478;2022-08-02T05:47:37;99970.94;;;22.34;71.24
19594;BME280;9944;48.240;16.478;2022-08-02T05:51:51;99959.56;;;22.49;71.06
19594;BME280;9944;48.240;16.478;2022-08-02T05:56:02;99959.59;;;22.70;70.83
19594;BME280;9944;48.240;16.478;2022-08-02T06:00:12;99967.34;;;22.97;70.22
19594;BME280;9944;48.240;16.478;2022-08-02T06:04:21;99961.63;;;23.26;69.99
19594;BME280;9944;48.240;16.478;2022-08-02T06:08:41;99964.88;;;23.52;68.78
19594;BME280;9944;48.240;16.478;2022-08-02T06:12:50;99962.94;;;23.75;67.77
19594;BME280;9944;48.240;16.478;2022-08-02T06:16:54;99969.66;;;23.85;66.59
19594;BME280;9944;48.240;16.478;2022-08-02T06:21:02;99971.53;;;24.02;66.18
19594;BME280;9944;48.240;16.478;2022-08-02T06:25:28;99980.22;;;24.26;65.64
19594;BME280;9944;48.240;16.478;2022-08-02T06:29:51;99974.88;;;24.43;64.99
19594;BME280;9944;48.240;16.478;2022-08-02T06:33:56;99982.47;;;24.53;65.07
19594;BME280;9944;48.240;16.478;2022-08-02T06:38:00;99984.41;;;24.68;63.78
19594;BME280;9944;48.240;16.478;2022-08-02T06:42:10;99975.78;;;24.61;63.67
19594;BME280;9944;48.240;16.478;2022-08-02T06:46:19;99978.88;;;24.54;63.27
19594;BME280;9944;48.240;16.478;2022-08-02T06:50:42;99987.38;;;24.44;63.72
19594;BME280;9944;48.240;16.478;2022-08-02T06:54:45;99988.66;;;24.37;63.65
19594;BME280;9944;48.240;16.478;2022-08-02T06:58:50;99994.31;;;24.31;64.19
19594;BME280;9944;48.240;16.478;2022-08-02T07:02:53;100012.34;;;24.29;64.06
19594;BME280;9944;48.240;16.478;2022-08-02T07:06:57;100004.22;;;24.31;64.23
19594;BME280;9944;48.240;16.478;2022-08-02T07:11:00;100011.25;;;24.33;64.10
19594;BME280;9944;48.240;16.478;2022-08-02T07:15:06;100013.16;;;24.31;63.69
19594;BME280;9944;48.240;16.478;2022-08-02T07:19:10;100019.97;;;24.38;64.08
19594;BME280;9944;48.240;16.478;2022-08-02T07:23:14;100021.53;;;24.42;64.40
19594;BME280;9944;48.240;16.478;2022-08-02T07:27:17;100022.19;;;24.48;64.37
19594;BME280;9944;48.240;16.478;2022-08-02T07:31:22;100022.13;;;24.49;63.68
19594;BME280;9944;48.240;16.478;2022-08-02T07:35:25;100020.88;;;24.56;64.30
19594;BME280;9944;48.240;16.478;2022-08-02T07:39:32;100030.34;;;24.65;63.62
19594;BME280;9944;48.240;16.478;2022-08-02T07:43:36;100031.84;;;24.71;63.92
19594;BME280;9944;48.240;16.478;2022-08-02T07:47:41;100027.13;;;24.76;63.48
19594;BME280;9944;48.240;16.478;2022-08-02T07:51:45;100032.03;;;24.85;63.82
19594;BME280;9944;48.240;16.478;2022-08-02T07:55:48;100024.72;;;24.87;63.24
19594;BME280;9944;48.240;16.478;2022-08-02T07:59:51;100020.06;;;24.91;63.54
19594;BME280;9944;48.240;16.478;2022-08-02T08:03:56;100021.31;;;25.01;62.96
19594;BME280;9944;48.240;16.478;2022-08-02T08:07:59;100023.44;;;25.12;62.42
19594;BME280;9944;48.240;16.478;2022-08-02T08:12:03;100026.06;;;25.31;61.96
19594;BME280;9944;48.240;16.478;2022-08-02T08:16:07;100020.34;;;25.54;61.33
19594;BME280;9944;48.240;16.478;2022-08-02T08:20:12;100023.16;;;25.69;61.28
19594;BME280;9944;48.240;16.478;2022-08-02T08:24:16;100029.06;;;25.75;61.52
19594;BME280;9944;48.240;16.478;2022-08-02T08:28:20;100038.63;;;25.81;60.92
19594;BME280;9944;48.240;16.478;2022-08-02T08:32:23;100032.94;;;25.87;59.94
19594;BME280;9944;48.240;16.478;2022-08-02T08:36:29;100036.38;;;26.07;59.44
19594;BME280;9944;48.240;16.478;2022-08-02T08:40:33;100029.16;;;26.23;59.28
19594;BME280;9944;48.240;16.478;2022-08-02T08:44:37;100025.66;;;26.37;58.78
19594;BME280;9944;48.240;16.478;2022-08-02T08:48:42;100028.97;;;26.42;58.32
19594;BME280;9944;48.240;16.478;2022-08-02T08:52:53;100027.06;;;26.44;57.71
19594;BME280;9944;48.240;16.478;2022-08-02T08:57:01;100032.38;;;26.46;57.64
19594;BME280;9944;48.240;16.478;2022-08-02T09:01:06;100030.53;;;26.46;57.02
19594;BME280;9944;48.240;16.478;2022-08-02T09:05:11;100025.13;;;26.62;56.46
19594;BME280;9944;48.240;16.478;2022-08-02T09:09:16;100017.28;;;26.74;56.77
19594;BME280;9944;48.240;16.478;2022-08-02T09:13:21;100019.59;;;26.80;56.50
19594;BME280;9944;48.240;16.478;2022-08-02T09:17:49;100013.19;;;26.97;56.50
19594;BME280;9944;48.240;16.478;2022-08-02T09:22:00;100013.63;;;27.19;56.43
19594;BME280;9944;48.240;16.478;2022-08-02T09:26:07;100007.31;;;27.35;55.86
19594;BME280;9944;48.240;16.478;2022-08-02T09:30:12;100017.19;;;27.50;55.34
19594;BME280;9944;48.240;16.478;2022-08-02T09:34:17;100011.56;;;27.68;55.02
19594;BME280;9944;48.240;16.478;2022-08-02T09:38:21;100014.75;;;27.74;54.36
19594;BME280;9944;48.240;16.478;2022-08-02T09:42:28;100015.78;;;27.86;53.79
19594;BME280;9944;48.240;16.478;2022-08-02T09:46:33;100005.84;;;28.01;53.64
19594;BME280;9944;48.240;16.478;2022-08-02T09:50:40;100000.81;;;28.09;52.44
19594;BME280;9944;48.240;16.478;2022-08-02T09:54:43;100001.78;;;28.08;52.57
19594;BME280;9944;48.240;16.478;2022-08-02T09:58:49;100001.19;;;28.17;52.68
19594;BME280;9944;48.240;16.478;2022-08-02T10:03:06;99998.44;;;28.32;52.38
19594;BME280;9944;48.240;16.478;2022-08-02T10:07:11;100001.28;;;28.43;51.89
19594;BME280;9944;48.240;16.478;2022-08-02T10:11:16;99984.44;;;28.52;50.96
19594;BME280;9944;48.240;16.478;2022-08-02T10:15:20;99975.41;;;28.52;50.66
19594;BME280;9944;48.240;16.478;2022-08-02T10:19:28;99968.19;;;28.52;50.72
19594;BME280;9944;48.240;16.478;2022-08-02T10:23:52;99969.09;;;28.66;50.91
19594;BME280;9944;48.240;16.478;2022-08-02T10:27:57;99973.38;;;28.83;50.92
19594;BME280;9944;48.240;16.478;2022-08-02T10:32:11;99975.13;;;28.97;50.53
19594;BME280;9944;48.240;16.478;2022-08-02T10:36:17;99964.75;;;29.16;50.68
19594;BME280;9944;48.240;16.478;2022-08-02T10:40:21;99972.25;;;29.25;50.31
19594;BME280;9944;48.240;16.478;2022-08-02T10:44:29;99968.31;;;29.42;49.92
19594;BME280;9944;48.240;16.478;2022-08-02T10:53:33;99976.53;;;29.66;49.22
19594;BME280;9944;48.240;16.478;2022-08-02T10:57:37;99961.69;;;29.59;48.19
19594;BME280;9944;48.240;16.478;2022-08-02T11:01:42;99952.06;;;29.55;48.32
19594;BME280;9944;48.240;16.478;2022-08-02T11:05:59;99966.16;;;29.60;48.20
19594;BME280;9944;48.240;16.478;2022-08-02T11:10:29;99953.66;;;29.58;47.47
19594;BME280;9944;48.240;16.478;2022-08-02T11:14:34;99943.38;;;29.76;46.96
19594;BME280;9944;48.240;16.478;2022-08-02T11:19:00;99943.66;;;29.71;46.93
19594;BME280;9944;48.240;16.478;2022-08-02T11:23:34;99946.63;;;29.55;47.87
19594;BME280;9944;48.240;16.478;2022-08-02T11:27:47;99945.97;;;29.39;48.04
19594;BME280;9944;48.240;16.478;2022-08-02T11:31:50;99944.25;;;29.51;48.09
19594;BME280;9944;48.240;16.478;2022-08-02T11:36:00;99936.38;;;29.72;47.57
19594;BME280;9944;48.240;16.478;2022-08-02T11:40:07;99924.22;;;29.90;47.13
19594;BME280;9944;48.240;16.478;2022-08-02T11:44:21;99923.47;;;30.12;46.70
19594;BME280;9944;48.240;16.478;2022-08-02T11:48:32;99919.75;;;30.13;45.66
19594;BME280;9944;48.240;16.478;2022-08-02T11:52:36;99924.22;;;29.90;46.03
19594;BME280;9944;48.240;16.478;2022-08-02T11:56:41;99925.13;;;29.78;46.66
19594;BME280;9944;48.240;16.478;2022-08-02T12:00:45;99912.19;;;29.81;45.97
19594;BME280;9944;48.240;16.478;2022-08-02T12:04:52;99908.97;;;30.00;45.60
19594;BME280;9944;48.240;16.478;2022-08-02T12:09:03;99907.75;;;30.04;45.12
19594;BME280;9944;48.240;16.478;2022-08-02T12:13:20;99910.47;;;30.04;45.12
19594;BME280;9944;48.240;16.478;2022-08-02T12:17:23;99897.19;;;30.13;45.10
19594;BME280;9944;48.240;16.478;2022-08-02T12:21:48;99895.28;;;30.26;45.55
19594;BME280;9944;48.240;16.478;2022-08-02T12:26:08;99899.25;;;30.33;45.37
19594;BME280;9944;48.240;16.478;2022-08-02T12:30:18;99898.81;;;30.39;44.94
19594;BME280;9944;48.240;16.478;2022-08-02T12:34:29;99881.94;;;30.47;45.26
19594;BME280;9944;48.240;16.478;2022-08-02T12:38:33;99885.78;;;30.56;44.48
19594;BME280;9944;48.240;16.478;2022-08-02T12:42:45;99884.28;;;30.52;44.03
19594;BME280;9944;48.240;16.478;2022-08-02T12:46:59;99876.63;;;30.57;44.16
19594;BME280;9944;48.240;16.478;2022-08-02T12:51:21;99872.09;;;30.69;44.66
19594;BME280;9944;48.240;16.478;2022-08-02T12:55:24;99870.66;;;30.87;44.68
19594;BME280;9944;48.240;16.478;2022-08-02T12:59:50;99875.03;;;31.01;43.89
19594;BME280;9944;48.240;16.478;2022-08-02T13:03:56;99865.22;;;30.87;43.66
19594;BME280;9944;48.240;16.478;2022-08-02T13:08:13;99865.56;;;30.83;43.81
19594;BME280;9944;48.240;16.478;2022-08-02T13:12:17;99863.69;;;30.83;42.61
19594;BME280;9944;48.240;16.478;2022-08-02T13:16:20;99863.81;;;30.70;43.04
19594;BME280;9944;48.240;16.478;2022-08-02T13:20:33;99859.38;;;30.69;43.89
19594;BME280;9944;48.240;16.478;2022-08-02T13:24:43;99859.41;;;30.81;43.70
19594;BME280;9944;48.240;16.478;2022-08-02T13:28:57;99861.22;;;30.69;42.14
19594;BME280;9944;48.240;16.478;2022-08-02T13:33:01;99845.78;;;30.58;42.36
19594;BME280;9944;48.240;16.478;2022-08-02T13:37:05;99854.53;;;30.62;42.67
19594;BME280;9944;48.240;16.478;2022-08-02T13:41:08;99850.34;;;30.57;43.24
19594;BME280;9944;48.240;16.478;2022-08-02T13:45:12;99841.31;;;30.57;42.95
19594;BME280;9944;48.240;16.478;2022-08-02T13:49:15;99835.66;;;30.60;43.35
19594;BME280;9944;48.240;16.478;2022-08-02T13:53:22;99843.31;;;30.66;43.13
19594;BME280;9944;48.240;16.478;2022-08-02T13:57:25;99831.47;;;30.67;42.22
19594;BME280;9944;48.240;16.478;2022-08-02T14:01:28;99833.66;;;30.62;42.17
19594;BME280;9944;48.240;16.478;2022-08-02T14:05:36;99818.75;;;30.68;41.65
19594;BME280;9944;48.240;16.478;2022-08-02T14:09:50;99818.50;;;30.71;41.27
19594;BME280;9944;48.240;16.478;2022-08-02T14:13:53;99819.38;;;30.71;41.54
19594;BME280;9944;48.240;16.478;2022-08-02T14:17:56;99825.91;;;30.69;41.63
19594;BME280;9944;48.240;16.478;2022-08-02T14:22:00;99828.00;;;30.65;41.46
19594;BME280;9944;48.240;16.478;2022-08-02T14:26:23;99820.84;;;30.64;41.09
19594;BME280;9944;48.240;16.478;2022-08-02T14:30:28;99818.00;;;30.66;41.06
19594;BME280;9944;48.240;16.478;2022-08-02T14:34:31;99812.31;;;30.69;40.83
19594;BME280;9944;48.240;16.478;2022-08-02T14:38:34;99812.19;;;30.70;40.10
19594;BME280;9944;48.240;16.478;2022-08-02T14:42:39;99797.38;;;30.63;40.81
19594;BME280;9944;48.240;16.478;2022-08-02T14:46:43;99799.97;;;30.65;40.40
19594;BME280;9944;48.240;16.478;2022-08-02T14:50:46;99796.41;;;30.64;40.52
19594;BME280;9944;48.240;16.478;2022-08-02T14:54:49;99798.22;;;30.64;40.87
19594;BME280;9944;48.240;16.478;2022-08-02T14:58:53;99796.41;;;30.64;40.42
19594;BME280;9944;48.240;16.478;2022-08-02T15:02:57;99792.19;;;30.60;40.81
19594;BME280;9944;48.240;16.478;2022-08-02T15:07:00;99785.78;;;30.61;40.51
19594;BME280;9944;48.240;16.478;2022-08-02T15:11:04;99784.66;;;30.52;40.55
19594;BME280;9944;48.240;16.478;2022-08-02T15:15:09;99787.38;;;30.52;40.24
19594;BME280;9944;48.240;16.478;2022-08-02T15:19:12;99782.28;;;30.48;40.46
19594;BME280;9944;48.240;16.478;2022-08-02T15:23:17;99772.91;;;30.52;41.05
19594;BME280;9944;48.240;16.478;2022-08-02T15:27:20;99782.41;;;30.46;40.36
19594;BME280;9944;48.240;16.478;2022-08-02T15:31:25;99786.13;;;30.45;40.14
19594;BME280;9944;48.240;16.478;2022-08-02T15:35:34;99781.66;;;30.44;40.27
19594;BME280;9944;48.240;16.478;2022-08-02T15:39:37;99778.09;;;30.44;40.60
19594;BME280;9944;48.240;16.478;2022-08-02T15:43:40;99782.78;;;30.41;40.74
19594;BME280;9944;48.240;16.478;2022-08-02T15:48:04;99781.28;;;30.37;40.23
19594;BME280;9944;48.240;16.478;2022-08-02T15:52:08;99785.22;;;30.33;40.87
19594;BME280;9944;48.240;16.478;2022-08-02T15:56:12;99790.63;;;30.33;40.37
19594;BME280;9944;48.240;16.478;2022-08-02T16:00:16;99793.94;;;30.26;40.00
19594;BME280;9944;48.240;16.478;2022-08-02T16:04:21;99804.66;;;30.16;40.15
19594;BME280;9944;48.240;16.478;2022-08-02T16:08:24;99796.00;;;30.11;39.86
19594;BME280;9944;48.240;16.478;2022-08-02T16:12:27;99803.41;;;30.09;40.30
19594;BME280;9944;48.240;16.478;2022-08-02T16:16:34;99806.47;;;30.04;40.85
19594;BME280;9944;48.240;16.478;2022-08-02T16:20:39;99803.88;;;30.02;40.39
19594;BME280;9944;48.240;16.478;2022-08-02T16:24:42;99798.91;;;29.96;40.89
19594;BME280;9944;48.240;16.478;2022-08-02T16:28:45;99793.72;;;29.93;40.66
19594;BME280;9944;48.240;16.478;2022-08-02T16:32:48;99802.22;;;29.89;41.30
19594;BME280;9944;48.240;16.478;2022-08-02T16:36:53;99802.53;;;29.84;41.04
19594;BME280;9944;48.240;16.478;2022-08-02T16:40:56;99798.22;;;29.81;41.25
19594;BME280;9944;48.240;16.478;2022-08-02T16:45:02;99802.91;;;29.79;41.59
19594;BME280;9944;48.240;16.478;2022-08-02T16:49:05;99804.00;;;29.77;41.66
19594;BME280;9944;48.240;16.478;2022-08-02T16:53:30;99797.06;;;29.73;41.70
19594;BME280;9944;48.240;16.478;2022-08-02T16:57:53;99800.72;;;29.72;42.07
19594;BME280;9944;48.240;16.478;2022-08-02T17:01:57;99809.88;;;29.71;41.78
19594;BME280;9944;48.240;16.478;2022-08-02T17:06:13;99808.13;;;29.70;42.18
19594;BME280;9944;48.240;16.478;2022-08-02T17:10:18;99801.09;;;29.67;41.40
19594;BME280;9944;48.240;16.478;2022-08-02T17:14:21;99804.16;;;29.62;41.61
19594;BME280;9944;48.240;16.478;2022-08-02T17:18:27;99808.84;;;29.60;41.80
19594;BME280;9944;48.240;16.478;2022-08-02T17:22:30;99825.31;;;29.57;41.79
19594;BME280;9944;48.240;16.478;2022-08-02T17:26:39;99816.44;;;29.55;41.85
19594;BME280;9944;48.240;16.478;2022-08-02T17:30:42;99821.13;;;29.53;42.12
19594;BME280;9944;48.240;16.478;2022-08-02T17:34:46;99809.75;;;29.48;41.77
19594;BME280;9944;48.240;16.478;2022-08-02T17:39:00;99810.09;;;29.43;41.82
19594;BME280;9944;48.240;16.478;2022-08-02T17:43:09;99819.75;;;29.35;42.13
19594;BME280;9944;48.240;16.478;2022-08-02T17:47:17;99820.19;;;29.28;42.21
19594;BME280;9944;48.240;16.478;2022-08-02T17:51:20;99818.69;;;29.24;42.33
19594;BME280;9944;48.240;16.478;2022-08-02T17:55:43;99822.84;;;29.17;42.58
19594;BME280;9944;48.240;16.478;2022-08-02T17:59:57;99827.81;;;29.10;42.81
19594;BME280;9944;48.240;16.478;2022-08-02T18:04:05;99826.41;;;29.05;43.32
19594;BME280;9944;48.240;16.478;2022-08-02T18:08:08;99841.13;;;29.01;43.57
19594;BME280;9944;48.240;16.478;2022-08-02T18:12:14;99840.09;;;28.90;43.80
19594;BME280;9944;48.240;16.478;2022-08-02T18:16:20;99846.91;;;28.83;43.75
19594;BME280;9944;48.240;16.478;2022-08-02T18:20:24;99845.94;;;28.71;43.63
19594;BME280;9944;48.240;16.478;2022-08-02T18:24:28;99848.22;;;28.65;43.89
19594;BME280;9944;48.240;16.478;2022-08-02T18:28:32;99854.06;;;28.59;43.81
19594;BME280;9944;48.240;16.478;2022-08-02T18:32:37;99859.97;;;28.51;44.25
19594;BME280;9944;48.240;16.478;2022-08-02T18:37:01;99852.47;;;28.42;44.43
19594;BME280;9944;48.240;16.478;2022-08-02T18:41:04;99858.34;;;28.35;44.95
19594;BME280;9944;48.240;16.478;2022-08-02T18:45:13;99866.97;;;28.28;44.92
19594;BME280;9944;48.240;16.478;2022-08-02T18:49:22;99871.16;;;28.19;45.24
19594;BME280;9944;48.240;16.478;2022-08-02T18:53:38;99873.44;;;28.12;45.44
19594;BME280;9944;48.240;16.478;2022-08-02T18:57:43;99882.50;;;28.11;46.20
19594;BME280;9944;48.240;16.478;2022-08-02T19:02:07;99889.22;;;28.06;46.10
19594;BME280;9944;48.240;16.478;2022-08-02T19:06:11;99897.53;;;28.03;46.64
19594;BME280;9944;48.240;16.478;2022-08-02T19:10:20;99897.81;;;27.98;47.16
19594;BME280;9944;48.240;16.478;2022-08-02T19:14:23;99900.97;;;27.92;46.99
19594;BME280;9944;48.240;16.478;2022-08-02T19:18:29;99901.31;;;27.86;47.41
19594;BME280;9944;48.240;16.478;2022-08-02T19:22:34;99904.22;;;27.83;47.42
19594;BME280;9944;48.240;16.478;2022-08-02T19:26:37;99901.84;;;27.78;47.83
19594;BME280;9944;48.240;16.478;2022-08-02T19:30:41;99909.19;;;27.76;47.98
19594;BME280;9944;48.240;16.478;2022-08-02T19:34:44;99908.63;;;27.71;48.19
19594;BME280;9944;48.240;16.478;2022-08-02T19:38:49;99906.50;;;27.61;49.15
19594;BME280;9944;48.240;16.478;2022-08-02T19:42:53;99907.84;;;27.54;49.40
19594;BME280;9944;48.240;16.478;2022-08-02T19:47:17;99919.19;;;27.47;50.02
19594;BME280;9944;48.240;16.478;2022-08-02T19:51:21;99920.63;;;27.38;50.27
19594;BME280;9944;48.240;16.478;2022-08-02T19:55:56;99916.69;;;27.29;50.74
19594;BME280;9944;48.240;16.478;2022-08-02T20:00:10;99911.81;;;27.20;50.68
19594;BME280;9944;48.240;16.478;2022-08-02T20:04:53;99916.72;;;27.13;51.59
19594;BME280;9944;48.240;16.478;2022-08-02T20:09:34;99911.81;;;27.05;51.71
19594;BME280;9944;48.240;16.478;2022-08-02T20:14:32;99909.69;;;26.96;52.50
19594;BME280;9944;48.240;16.478;2022-08-02T20:19:06;99910.81;;;26.92;53.05
19594;BME280;9944;48.240;16.478;2022-08-02T20:23:30;99910.16;;;26.89;53.31
19594;BME280;9944;48.240;16.478;2022-08-02T21:12:16;99902.81;;;26.00;54.83
19594;BME280;9944;48.240;16.478;2022-08-02T21:16:30;99908.38;;;25.97;54.80
19594;BME280;9944;48.240;16.478;2022-08-02T21:20:34;99912.34;;;25.89;55.43
19594;BME280;9944;48.240;16.478;2022-08-02T21:24:37;99913.59;;;25.84;55.59
19594;BME280;9944;48.240;16.478;2022-08-02T21:28:42;99907.66;;;25.77;55.58
19594;BME280;9944;48.240;16.478;2022-08-02T21:32:49;99906.19;;;25.71;55.25
19594;BME280;9944;48.240;16.478;2022-08-02T21:36:55;99910.00;;;25.67;55.56
19594;BME280;9944;48.240;16.478;2022-08-02T21:40:58;99913.06;;;25.61;55.68
19594;BME280;9944;48.240;16.478;2022-08-02T21:45:03;99918.69;;;25.56;56.47
19594;BME280;9944;48.240;16.478;2022-08-02T21:49:21;99925.31;;;25.51;56.38
19594;BME280;9944;48.240;16.478;2022-08-02T21:53:45;99919.38;;;25.44;56.70
19594;BME280;9944;48.240;16.478;2022-08-02T21:58:08;99928.00;;;25.35;57.10
19594;BME280;9944;48.240;16.478;2022-08-02T22:02:14;99925.69;;;25.27;57.42
19594;BME280;9944;48.240;16.478;2022-08-02T22:06:19;99928.00;;;25.17;57.85
19594;BME280;9944;48.240;16.478;2022-08-02T22:10:24;99930.00;;;25.14;58.77
19594;BME280;9944;48.240;16.478;2022-08-02T22:14:27;99926.59;;;25.10;59.22
19594;BME280;9944;48.240;16.478;2022-08-02T22:18:32;99932.06;;;25.09;59.35
19594;BME280;9944;48.240;16.478;2022-08-02T22:22:35;99930.47;;;25.05;59.79
19594;BME280;9944;48.240;16.478;2022-08-02T22:26:38;99933.50;;;24.98;60.12
19594;BME280;9944;48.240;16.478;2022-08-02T22:30:43;99933.75;;;24.94;59.94
19594;BME280;9944;48.240;16.478;2022-08-02T22:34:54;99935.81;;;24.89;59.35
19594;BME280;9944;48.240;16.478;2022-08-02T22:38:58;99935.19;;;24.84;59.50